createdAt,value
2023-07-25T00:00:28.277Z,40.29
2023-07-25T00:02:59.039Z,40.82
2023-07-25T00:05:29.514Z,40.21
2023-07-25T00:07:59.239Z,40.14
2023-07-25T00:10:29.398Z,40.52
2023-07-25T00:12:59.299Z,40.14
2023-07-25T00:15:31.466Z,39.71
2023-07-25T00:18:01.817Z,40.08
2023-07-25T00:20:32.292Z,40.05
2023-07-25T00:23:02.751Z,39.80
2023-07-25T00:25:33.172Z,39.71
2023-07-25T00:28:03.831Z,39.72
2023-07-25T00:30:36.119Z,39.55
2023-07-25T00:33:06.626Z,39.16
2023-07-25T00:35:37.092Z,39.09
2023-07-25T00:38:07.291Z,39.17
2023-07-25T00:40:42.392Z,39.47
2023-07-25T00:43:12.252Z,38.96
2023-07-25T00:45:44.859Z,38.71
2023-07-25T00:48:15.770Z,39.13
2023-07-25T00:50:46.307Z,38.68
2023-07-25T00:53:18.158Z,38.61
2023-07-25T00:55:50.357Z,38.54
2023-07-25T00:58:21.182Z,38.56
2023-07-25T01:00:53.508Z,38.47
2023-07-25T01:03:23.896Z,38.58
2023-07-25T01:05:55.817Z,38.99
2023-07-25T01:08:25.844Z,38.78
2023-07-25T01:10:55.792Z,38.50
2023-07-25T01:13:26.737Z,38.38
2023-07-25T01:16:00.910Z,38.18
2023-07-25T01:18:32.564Z,38.57
2023-07-25T01:21:04.558Z,38.04
2023-07-25T01:23:35.785Z,38.63
2023-07-25T01:26:07.701Z,38.01
2023-07-25T01:28:38.840Z,38.09
2023-07-25T01:31:09.216Z,37.79
2023-07-25T01:33:39.737Z,38.40
2023-07-25T01:36:10.124Z,38.46
2023-07-25T01:38:40.132Z,38.15
2023-07-25T01:41:11.380Z,37.77
2023-07-25T01:43:41.396Z,38.13
2023-07-25T01:46:11.820Z,37.75
2023-07-25T01:48:42.241Z,37.85
2023-07-25T01:51:12.223Z,37.70
2023-07-25T01:53:42.410Z,37.73
2023-07-25T01:56:14.662Z,37.95
2023-07-25T01:58:44.335Z,38.18
2023-07-25T02:01:14.088Z,38.26
2023-07-25T02:03:44.786Z,37.53
2023-07-25T02:06:15.360Z,37.55
2023-07-25T02:08:45.788Z,38.12
2023-07-25T02:11:18.324Z,37.29
2023-07-25T02:13:48.869Z,37.41
2023-07-25T02:16:18.943Z,37.88
2023-07-25T02:18:49.248Z,37.47
2023-07-25T02:21:19.596Z,37.37
2023-07-25T02:23:50.062Z,37.96
2023-07-25T02:26:21.919Z,37.43
2023-07-25T02:28:52.405Z,37.82
2023-07-25T02:31:22.773Z,37.77
2023-07-25T02:33:53.302Z,37.57
2023-07-25T02:36:23.238Z,37.63
2023-07-25T02:38:55.042Z,37.14
2023-07-25T02:41:27.336Z,37.71
2023-07-25T02:43:57.694Z,37.13
2023-07-25T02:46:27.901Z,37.32
2023-07-25T02:48:57.660Z,36.92
2023-07-25T02:51:26.249Z,36.93
2023-07-25T02:53:56.596Z,36.72
2023-07-25T02:56:30.326Z,37.35
2023-07-25T02:59:00.687Z,37.17
2023-07-25T03:01:31.092Z,37.33
2023-07-25T03:04:01.752Z,36.71
2023-07-25T03:06:32.039Z,36.49
2023-07-25T03:09:01.916Z,37.18
2023-07-25T03:11:34.080Z,36.48
2023-07-25T03:14:04.835Z,36.46
2023-07-25T03:16:35.789Z,36.93
2023-07-25T03:19:06.131Z,36.47
2023-07-25T03:21:36.626Z,36.63
2023-07-25T03:24:07.398Z,36.55
2023-07-25T03:26:39.929Z,36.63
2023-07-25T03:29:09.795Z,36.54
2023-07-25T03:31:40.282Z,36.93
2023-07-25T03:34:10.870Z,37.09
2023-07-25T03:36:41.222Z,36.53
2023-07-25T03:39:11.075Z,36.77
2023-07-25T03:41:43.346Z,36.43
2023-07-25T03:44:19.177Z,36.91
2023-07-25T03:46:49.129Z,36.58
2023-07-25T03:49:19.834Z,36.43
2023-07-25T03:51:50.285Z,36.60
2023-07-25T03:54:25.246Z,36.63
2023-07-25T03:56:57.142Z,36.94
2023-07-25T03:59:27.604Z,37.41
2023-07-25T04:01:57.471Z,37.00
2023-07-25T04:04:27.288Z,37.41
2023-07-25T04:06:57.587Z,37.50
2023-07-25T04:09:28.079Z,37.33
2023-07-25T04:12:00.034Z,37.47
2023-07-25T04:14:30.373Z,37.47
2023-07-25T04:17:00.905Z,37.17
2023-07-25T04:19:31.407Z,37.32
2023-07-25T04:22:01.676Z,37.96
2023-07-25T04:24:32.131Z,37.49
2023-07-25T04:27:04.647Z,38.00
2023-07-25T04:29:34.647Z,38.20
2023-07-25T04:32:04.531Z,38.34
2023-07-25T04:34:34.969Z,38.35
2023-07-25T04:37:05.450Z,37.85
2023-07-25T04:39:35.818Z,37.98
2023-07-25T04:42:08.849Z,38.69
2023-07-25T04:44:39.180Z,38.74
2023-07-25T04:47:09.702Z,38.99
2023-07-25T04:49:40.003Z,38.58
2023-07-25T04:52:11.069Z,38.67
2023-07-25T04:54:41.489Z,39.02
2023-07-25T04:57:13.946Z,39.04
2023-07-25T04:59:44.141Z,39.49
2023-07-25T05:02:14.211Z,39.36
2023-07-25T05:04:44.293Z,39.57
2023-07-25T05:07:14.723Z,39.74
2023-07-25T05:09:45.389Z,40.58
2023-07-25T05:12:17.906Z,40.76
2023-07-25T05:14:48.493Z,41.08
2023-07-25T05:17:18.670Z,40.96
2023-07-25T05:19:50.678Z,40.78
2023-07-25T05:22:21.124Z,41.52
2023-07-25T05:24:52.019Z,41.67
2023-07-25T05:27:23.945Z,41.84
2023-07-25T05:29:54.555Z,42.06
2023-07-25T05:32:25.826Z,42.19
2023-07-25T05:34:56.305Z,41.57
2023-07-25T05:37:36.273Z,41.78
2023-07-25T05:40:08.070Z,42.06
2023-07-25T05:42:40.057Z,42.28
2023-07-25T05:45:11.488Z,42.55
2023-07-25T05:47:41.918Z,42.40
2023-07-25T05:50:13.605Z,42.58
2023-07-25T05:52:43.688Z,42.21
2023-07-25T05:55:14.093Z,42.33
2023-07-25T05:57:46.007Z,42.88
2023-07-25T06:00:17.021Z,43.18
2023-07-25T06:02:46.840Z,43.01
2023-07-25T06:05:16.631Z,43.04
2023-07-25T06:07:47.006Z,42.68
2023-07-25T06:10:17.502Z,42.83
2023-07-25T06:12:49.966Z,43.25
2023-07-25T06:15:20.781Z,43.23
2023-07-25T06:17:50.861Z,42.72
2023-07-25T06:20:21.695Z,42.79
2023-07-25T06:22:52.714Z,42.72
2023-07-25T06:25:23.200Z,43.52
2023-07-25T06:27:55.419Z,43.16
2023-07-25T06:30:25.888Z,43.41
2023-07-25T06:32:57.019Z,43.66
2023-07-25T06:35:26.706Z,42.87
2023-07-25T06:37:57.148Z,42.96
2023-07-25T06:40:27.276Z,43.48
2023-07-25T06:42:59.450Z,42.82
2023-07-25T06:45:30.231Z,43.33
2023-07-25T06:48:00.670Z,43.42
2023-07-25T06:50:31.132Z,43.20
2023-07-25T06:53:01.444Z,42.78
2023-07-25T06:55:31.413Z,42.54
2023-07-25T06:58:03.683Z,42.82
2023-07-25T07:00:34.220Z,42.98
2023-07-25T07:03:04.655Z,42.58
2023-07-25T07:05:37.190Z,43.09
2023-07-25T07:08:08.458Z,42.59
2023-07-25T07:10:38.903Z,42.60
2023-07-25T07:13:11.249Z,42.87
2023-07-25T07:15:41.457Z,42.65
2023-07-25T07:18:12.076Z,42.88
2023-07-25T07:20:42.558Z,42.83
2023-07-25T07:23:12.880Z,42.24
2023-07-25T07:25:43.466Z,42.46
2023-07-25T07:28:15.962Z,42.51
2023-07-25T07:30:51.922Z,43.01
2023-07-25T07:33:22.038Z,42.78
2023-07-25T07:35:52.193Z,42.95
2023-07-25T07:38:22.471Z,42.86
2023-07-25T07:40:52.590Z,43.15
2023-07-25T07:43:24.390Z,43.54
2023-07-25T07:45:54.538Z,43.28
2023-07-25T07:48:24.889Z,43.47
2023-07-25T07:50:54.988Z,43.01
2023-07-25T07:53:25.426Z,43.50
2023-07-25T07:55:55.571Z,43.32
2023-07-25T07:58:27.662Z,43.70
2023-07-25T08:00:58.159Z,43.30
2023-07-25T08:03:28.101Z,43.80
2023-07-25T08:06:00.454Z,43.61
2023-07-25T08:08:30.763Z,43.29
2023-07-25T08:11:00.873Z,43.08
2023-07-25T08:13:32.680Z,43.22
2023-07-25T08:16:03.184Z,43.28
2023-07-25T08:18:33.694Z,43.71
2023-07-25T08:21:04.504Z,43.44
2023-07-25T08:23:34.850Z,43.45
2023-07-25T08:26:05.102Z,43.25
2023-07-25T08:28:37.566Z,43.57
2023-07-25T08:31:08.173Z,43.66
2023-07-25T08:33:38.509Z,43.53
2023-07-25T08:36:08.679Z,43.02
2023-07-25T08:38:39.724Z,42.98
2023-07-25T08:41:15.974Z,42.63
2023-07-25T08:43:49.420Z,42.43
2023-07-25T08:46:23.720Z,42.31
2023-07-25T08:49:03.167Z,42.16
2023-07-25T08:51:40.379Z,42.71
2023-07-25T08:54:21.910Z,42.80
2023-07-25T08:56:53.636Z,43.45
2023-07-25T08:59:27.270Z,43.00
2023-07-25T09:01:58.901Z,43.49
2023-07-25T09:04:31.806Z,43.12
2023-07-25T09:07:04.264Z,43.04
2023-07-25T09:09:34.149Z,43.32
2023-07-25T09:12:04.778Z,43.58
2023-07-25T09:14:38.228Z,42.90
2023-07-25T09:17:09.669Z,43.02
2023-07-25T09:19:40.050Z,43.04
2023-07-25T09:22:30.588Z,42.74
2023-07-25T09:25:01.909Z,42.88
2023-07-25T09:27:31.763Z,42.82
2023-07-25T09:30:04.524Z,42.91
2023-07-25T09:32:35.237Z,43.12
2023-07-25T09:35:07.688Z,42.99
2023-07-25T09:37:38.175Z,42.78
2023-07-25T09:40:13.379Z,43.15
2023-07-25T09:42:45.168Z,43.27
2023-07-25T09:45:16.904Z,42.90
2023-07-25T09:47:47.084Z,43.03
2023-07-25T09:50:17.375Z,43.22
2023-07-25T09:52:47.968Z,42.89
2023-07-25T09:55:18.008Z,43.00
2023-07-25T09:57:48.641Z,43.16
2023-07-25T10:00:22.255Z,42.81
2023-07-25T10:02:53.601Z,42.83
2023-07-25T10:05:24.864Z,43.08
2023-07-25T10:07:57.998Z,42.72
2023-07-25T10:10:29.819Z,42.63
2023-07-25T10:13:00.583Z,43.07
2023-07-25T10:15:33.441Z,42.58
2023-07-25T10:18:08.403Z,42.66
2023-07-25T10:20:38.392Z,42.77
2023-07-25T10:23:16.137Z,42.88
2023-07-25T10:25:46.085Z,42.50
2023-07-25T10:28:16.542Z,43.02
2023-07-25T10:30:50.340Z,42.89
2023-07-25T10:33:20.697Z,42.84
2023-07-25T10:35:54.523Z,43.18
2023-07-25T10:38:33.856Z,42.76
2023-07-25T10:41:15.118Z,42.50
2023-07-25T10:44:03.275Z,42.54
2023-07-25T10:46:38.025Z,42.58
2023-07-25T10:49:18.677Z,42.49
2023-07-25T10:51:54.272Z,42.15
2023-07-25T10:54:26.391Z,42.61
2023-07-25T10:57:19.038Z,42.58
2023-07-25T11:00:05.968Z,42.51
2023-07-25T11:02:40.721Z,42.70
2023-07-25T11:05:26.910Z,42.76
2023-07-25T11:08:01.331Z,42.42
2023-07-25T11:10:35.889Z,42.53
2023-07-25T11:13:06.321Z,42.74
2023-07-25T11:15:47.192Z,42.29
2023-07-25T11:18:22.218Z,41.89
2023-07-25T11:21:02.723Z,42.12
2023-07-25T11:23:34.373Z,42.05
2023-07-25T11:26:08.920Z,42.14
2023-07-25T11:28:43.108Z,42.17
2023-07-25T11:31:14.003Z,42.56
2023-07-25T11:33:47.229Z,41.97
2023-07-25T11:36:17.152Z,42.50
2023-07-25T11:38:50.627Z,42.20
2023-07-25T11:41:21.497Z,42.33
2023-07-25T11:43:54.049Z,42.42
2023-07-25T11:46:24.634Z,42.33
2023-07-25T11:49:00.271Z,42.05
2023-07-25T11:51:32.754Z,42.20
2023-07-25T11:54:08.203Z,42.21
2023-07-25T11:56:40.295Z,42.81
2023-07-25T11:59:16.921Z,42.46
2023-07-25T12:01:47.941Z,42.32
2023-07-25T12:04:24.359Z,42.13
2023-07-25T12:07:02.303Z,42.39
2023-07-25T12:09:34.246Z,42.65
2023-07-25T12:12:05.641Z,42.83
2023-07-25T12:14:36.226Z,42.95
2023-07-25T12:17:07.306Z,43.02
2023-07-25T12:19:41.064Z,42.76
2023-07-25T12:22:12.961Z,42.82
2023-07-25T12:24:47.160Z,42.93
2023-07-25T12:27:23.976Z,43.10
2023-07-25T12:29:55.798Z,43.39
2023-07-25T12:32:34.804Z,43.74
2023-07-25T12:35:18.645Z,43.25
2023-07-25T12:37:54.302Z,43.31
2023-07-25T12:40:27.091Z,43.40
2023-07-25T12:43:04.304Z,43.24
2023-07-25T12:45:39.418Z,42.99
2023-07-25T12:48:11.077Z,43.17
2023-07-25T12:50:47.336Z,42.99
2023-07-25T12:53:18.554Z,43.67
2023-07-25T12:55:50.572Z,43.19
2023-07-25T12:58:22.689Z,43.42
2023-07-25T13:00:55.408Z,43.59
2023-07-25T13:03:30.236Z,43.12
2023-07-25T13:06:06.727Z,43.62
2023-07-25T13:08:38.842Z,43.30
2023-07-25T13:11:10.339Z,43.53
2023-07-25T13:13:42.880Z,43.48
2023-07-25T13:16:17.182Z,43.81
2023-07-25T13:18:48.854Z,43.23
2023-07-25T13:21:22.667Z,43.11
2023-07-25T13:23:54.017Z,43.02
2023-07-25T13:26:27.646Z,43.09
2023-07-25T13:28:59.650Z,43.21
2023-07-25T13:31:34.695Z,43.01
2023-07-25T13:34:06.904Z,42.70
2023-07-25T13:36:44.835Z,43.26
2023-07-25T13:39:16.500Z,43.59
2023-07-25T13:41:48.356Z,43.44
2023-07-25T13:47:14.132Z,43.30
2023-07-25T13:49:47.766Z,43.32
2023-07-25T13:52:22.902Z,43.48
2023-07-25T13:54:57.353Z,43.62
2023-07-25T13:57:35.241Z,43.46
2023-07-25T14:00:14.161Z,42.83
2023-07-25T14:02:50.285Z,43.05
2023-07-25T14:05:21.960Z,42.72
2023-07-25T14:07:55.564Z,42.81
2023-07-25T14:10:28.342Z,43.43
2023-07-25T14:13:00.678Z,43.83
2023-07-25T14:15:32.356Z,43.44
2023-07-25T14:18:05.983Z,44.06
2023-07-25T14:20:41.336Z,44.28
2023-07-25T14:23:15.842Z,44.52
2023-07-25T14:25:47.885Z,44.17
2023-07-25T14:28:19.711Z,44.80
2023-07-25T14:30:52.483Z,44.30
2023-07-25T14:33:24.468Z,44.29
2023-07-25T14:35:57.541Z,44.28
2023-07-25T14:38:31.562Z,44.50
2023-07-25T14:41:04.821Z,44.74
2023-07-25T14:43:39.332Z,44.66
2023-07-25T14:46:10.957Z,44.33
2023-07-25T14:48:49.371Z,44.29
2023-07-25T14:51:27.897Z,44.48
2023-07-25T14:54:04.883Z,44.70
2023-07-25T14:56:36.743Z,44.99
2023-07-25T14:59:23.631Z,44.65
2023-07-25T15:02:15.125Z,44.38
2023-07-25T15:04:48.886Z,44.48
2023-07-25T15:07:22.909Z,44.46
2023-07-25T15:10:10.651Z,44.16
2023-07-25T15:13:04.501Z,44.54
2023-07-25T15:15:58.802Z,44.49
2023-07-25T15:19:08.701Z,44.69
2023-07-25T15:21:59.011Z,45.11
2023-07-25T15:24:47.909Z,45.04
2023-07-25T15:27:45.721Z,44.87
2023-07-25T15:30:41.436Z,45.21
2023-07-25T15:33:24.069Z,45.17
2023-07-25T15:36:15.893Z,44.25
2023-07-25T15:39:03.779Z,45.06
2023-07-25T15:41:53.926Z,44.75
2023-07-25T15:45:00.713Z,44.49
2023-07-25T15:47:57.028Z,44.43
2023-07-25T15:50:44.235Z,44.00
2023-07-25T15:59:50.668Z,44.37
2023-07-25T16:02:51.152Z,44.22
2023-07-25T16:09:00.753Z,44.55
2023-07-25T16:12:12.302Z,43.97
2023-07-25T16:15:01.587Z,44.40
2023-07-25T16:17:45.497Z,44.44
2023-07-25T16:20:42.854Z,44.39
2023-07-25T16:23:28.271Z,44.53
2023-07-25T16:26:16.083Z,44.26
2023-07-25T16:28:55.950Z,44.50
2023-07-25T16:31:51.778Z,43.89
2023-07-25T16:34:35.384Z,43.79
2023-07-25T16:37:25.622Z,43.80
2023-07-25T16:40:26.005Z,43.86
2023-07-25T16:43:19.238Z,43.72
2023-07-25T16:52:40.143Z,43.83
2023-07-25T16:55:23.149Z,43.71
2023-07-25T16:58:10.213Z,43.78
2023-07-25T17:03:50.953Z,43.68
2023-07-25T17:06:42.464Z,43.12
2023-07-25T17:09:27.085Z,43.56
2023-07-25T17:12:09.177Z,43.53
2023-07-25T17:14:56.404Z,43.02
2023-07-25T17:17:57.901Z,43.29
2023-07-25T17:20:58.930Z,43.16
2023-07-25T17:23:57.288Z,42.92
2023-07-25T17:26:47.704Z,43.01
2023-07-25T17:29:43.457Z,43.69
2023-07-25T17:32:46.054Z,43.04
2023-07-25T17:39:03.440Z,42.83
2023-07-25T17:41:51.040Z,43.19
2023-07-25T17:44:29.614Z,43.57
2023-07-25T17:47:11.103Z,43.77
2023-07-25T17:50:02.462Z,43.39
2023-07-25T17:52:58.848Z,43.50
2023-07-25T17:55:56.296Z,43.48
2023-07-25T17:58:37.076Z,42.89
2023-07-25T18:01:42.387Z,42.73
2023-07-25T18:04:21.478Z,43.29
2023-07-25T18:07:03.603Z,42.98
2023-07-25T18:09:42.267Z,42.90
2023-07-25T18:12:35.356Z,42.63
2023-07-25T18:15:30.337Z,43.37
2023-07-25T18:18:09.563Z,43.04
2023-07-25T18:21:00.435Z,43.12
2023-07-25T18:23:42.165Z,43.56
2023-07-25T18:26:27.076Z,43.81
2023-07-25T18:29:10.346Z,43.63
2023-07-25T18:32:00.466Z,43.80
2023-07-25T18:35:06.866Z,43.59
2023-07-25T18:37:55.087Z,43.38
2023-07-25T18:40:38.174Z,43.35
2023-07-25T18:43:44.977Z,43.41
2023-07-25T18:46:53.069Z,43.64
2023-07-25T18:49:40.534Z,43.83
2023-07-25T18:52:27.862Z,44.12
2023-07-25T18:55:07.556Z,45.01
2023-07-25T18:57:56.587Z,44.52
2023-07-25T19:00:37.839Z,44.63
2023-07-25T19:03:32.199Z,44.13
2023-07-25T19:06:24.865Z,44.53
2023-07-25T19:09:20.005Z,44.63
2023-07-25T19:17:46.670Z,44.63
2023-07-25T19:20:35.551Z,44.49
2023-07-25T19:26:48.340Z,44.33
2023-07-25T19:29:43.953Z,44.41
2023-07-25T19:39:13.673Z,43.77
2023-07-25T19:41:59.587Z,43.57
2023-07-25T19:44:33.030Z,44.07
2023-07-25T19:47:10.864Z,44.09
2023-07-25T19:49:43.401Z,44.06
2023-07-25T19:52:19.949Z,43.79
2023-07-25T19:54:52.464Z,44.14
2023-07-25T19:57:25.476Z,44.42
2023-07-25T20:00:00.422Z,44.25
2023-07-25T20:02:35.421Z,43.64
2023-07-25T20:05:13.416Z,44.41
2023-07-25T20:07:55.740Z,44.35
2023-07-25T20:10:33.232Z,44.32
2023-07-25T20:13:06.457Z,44.13
2023-07-25T20:15:51.216Z,44.12
2023-07-25T20:18:26.654Z,44.06
2023-07-25T20:21:17.208Z,44.31
2023-07-25T20:23:55.832Z,44.07
2023-07-25T20:26:37.194Z,43.95
2023-07-25T20:29:13.650Z,44.09
2023-07-25T20:31:47.611Z,44.27
2023-07-25T20:34:20.867Z,44.29
2023-07-25T20:36:54.695Z,44.36
2023-07-25T20:39:36.081Z,43.77
2023-07-25T20:42:15.666Z,44.28
2023-07-25T20:44:51.036Z,43.74
2023-07-25T20:47:29.257Z,44.14
2023-07-25T20:50:02.888Z,43.50
2023-07-25T20:52:35.916Z,43.36
2023-07-25T20:55:20.398Z,43.78
2023-07-25T20:57:53.099Z,43.83
2023-07-25T21:00:26.429Z,43.94
2023-07-25T21:03:02.700Z,43.32
2023-07-25T21:05:35.455Z,43.35
2023-07-25T21:08:07.140Z,43.84
2023-07-25T21:10:45.265Z,44.09
2023-07-25T21:13:19.857Z,43.62
2023-07-25T21:15:55.783Z,43.94
2023-07-25T21:18:30.021Z,44.01
2023-07-25T21:21:06.612Z,44.19
2023-07-25T21:23:40.467Z,43.83
2023-07-25T21:26:13.442Z,44.07
2023-07-25T21:28:44.861Z,44.04
2023-07-25T21:31:17.852Z,44.13
2023-07-25T21:33:53.623Z,44.16
2023-07-25T21:36:25.511Z,44.14
2023-07-25T21:38:58.136Z,44.58
2023-07-25T21:41:46.426Z,43.96
2023-07-25T21:44:18.523Z,44.52
2023-07-25T21:46:53.669Z,44.43
2023-07-25T21:49:26.130Z,44.17
2023-07-25T21:51:59.721Z,44.33
2023-07-25T21:54:34.808Z,45.06
2023-07-25T21:57:18.730Z,45.03
2023-07-25T21:59:51.148Z,45.23
2023-07-25T22:02:26.654Z,44.79
2023-07-25T22:05:00.960Z,45.20
2023-07-25T22:07:41.181Z,44.97
2023-07-25T22:10:14.464Z,44.11
2023-07-25T22:12:53.481Z,44.60
2023-07-25T22:15:30.322Z,44.12
2023-07-25T22:18:02.667Z,44.13
2023-07-25T22:20:45.803Z,43.82
2023-07-25T22:23:25.662Z,44.24
2023-07-25T22:26:04.048Z,44.03
2023-07-25T22:28:40.224Z,44.25
2023-07-25T22:31:16.105Z,43.66
2023-07-25T22:33:49.836Z,44.18
2023-07-25T22:36:23.118Z,44.28
2023-07-25T22:38:56.125Z,44.29
2023-07-25T22:41:26.810Z,43.74
2023-07-25T22:44:00.635Z,43.63
2023-07-25T22:46:35.199Z,43.92
2023-07-25T22:49:07.357Z,44.05
2023-07-25T22:51:45.852Z,43.82
2023-07-25T22:54:18.703Z,43.90
2023-07-25T22:56:52.711Z,44.46
2023-07-25T22:59:33.252Z,43.72
2023-07-25T23:02:08.111Z,43.60
2023-07-25T23:04:40.128Z,43.98
2023-07-25T23:07:15.489Z,43.58
2023-07-25T23:09:48.725Z,44.02
2023-07-25T23:12:24.014Z,43.81
2023-07-25T23:15:01.439Z,43.49
2023-07-25T23:17:36.726Z,43.72
2023-07-25T23:20:12.950Z,43.99
2023-07-25T23:22:43.669Z,44.09
2023-07-25T23:25:15.759Z,44.36
2023-07-25T23:27:47.209Z,44.65
2023-07-25T23:30:21.292Z,45.05
2023-07-25T23:32:52.562Z,44.77
2023-07-25T23:35:24.334Z,44.99
2023-07-25T23:37:55.360Z,45.58
2023-07-25T23:40:27.793Z,45.23
2023-07-25T23:42:58.647Z,45.50
2023-07-25T23:45:31.827Z,45.83
2023-07-25T23:48:02.759Z,45.63
2023-07-25T23:50:35.076Z,45.63
2023-07-25T23:53:05.604Z,44.90
2023-07-25T23:55:36.925Z,45.21
2023-07-25T23:58:07.807Z,45.05
